Time;durP1;ratioP1;P1;durP2;ratioP2;P2;SDS_P1;SDS_P2;PMS_P1;PMS_P2;Temp;Humidity;BMP_temperature;BMP_pressure;BME280_temperature;BME280_humidity;BME280_pressure;Samples;Min_cycle;Max_cycle;Signal;HPM_P1;HPM_P2
2022/09/02 00:01:18;;;;;;;1999.90;999.90;;;12.40;99.90;;;;;;5056617;28;20483;-68
2022/09/02 00:03:46;;;;;;;1999.90;999.90;;;12.30;99.90;;;;;;5046386;28;20577;-68
2022/09/02 00:06:13;;;;;;;1999.90;999.90;;;12.30;99.90;;;;;;5055226;28;20880;-68
2022/09/02 00:08:41;;;;;;;1999.90;999.90;;;12.20;99.90;;;;;;5057129;28;20868;-68
2022/09/02 00:11:09;;;;;;;1999.90;999.90;;;12.20;99.90;;;;;;5051329;28;20820;-67
2022/09/02 00:13:37;;;;;;;1999.90;999.90;;;12.10;99.90;;;;;;5056681;28;20554;-68
2022/09/02 00:16:05;;;;;;;1999.90;999.90;;;12.00;99.90;;;;;;5053529;28;20817;-68
2022/09/02 00:18:32;;;;;;;1999.90;999.90;;;11.90;99.90;;;;;;5050533;28;20458;-67
2022/09/02 00:20:59;;;;;;;1999.90;999.90;;;11.90;99.90;;;;;;5055267;28;21100;-68
2022/09/02 00:23:26;;;;;;;1999.90;999.90;;;11.80;99.90;;;;;;5055842;28;20497;-68
2022/09/02 00:25:53;;;;;;;1999.90;999.90;;;11.70;99.90;;;;;;5051142;28;20465;-68
2022/09/02 00:28:19;;;;;;;1999.90;999.90;;;11.70;99.90;;;;;;5053644;28;20487;-68
2022/09/02 00:30:46;;;;;;;1999.90;999.90;;;11.60;99.90;;;;;;5044880;28;20911;-69
2022/09/02 00:33:15;;;;;;;1999.90;999.90;;;11.50;99.90;;;;;;5046653;28;20478;-68
2022/09/02 00:35:42;;;;;;;1999.90;999.90;;;11.50;99.90;;;;;;5056833;28;20552;-67
2022/09/02 00:38:09;;;;;;;1999.90;999.90;;;11.40;99.90;;;;;;5058226;28;20525;-67
2022/09/02 00:40:36;;;;;;;1999.90;999.90;;;11.40;99.90;;;;;;5061060;28;21041;-66
2022/09/02 00:43:07;;;;;;;1999.90;999.90;;;11.30;99.90;;;;;;5057459;28;20475;-68
2022/09/02 00:45:34;;;;;;;1999.90;999.90;;;11.40;99.90;;;;;;5056119;28;20472;-68
2022/09/02 00:48:00;;;;;;;1999.90;999.90;;;11.30;99.90;;;;;;5044417;28;20574;-67
2022/09/02 00:50:31;;;;;;;1999.90;999.90;;;11.30;99.90;;;;;;5057482;28;20927;-68
2022/09/02 00:53:02;;;;;;;1999.90;999.90;;;11.40;99.90;;;;;;5049166;28;20493;-68
2022/09/02 00:55:32;;;;;;;1999.90;999.90;;;11.50;99.90;;;;;;5053726;28;20462;-68
2022/09/02 00:58:02;;;;;;;1999.90;999.90;;;11.50;99.90;;;;;;5052345;28;20506;-68
2022/09/02 01:00:33;;;;;;;1999.90;999.90;;;11.50;99.90;;;;;;5043349;28;20938;-67
2022/09/02 01:03:06;;;;;;;1999.90;999.90;;;11.60;99.90;;;;;;5049909;28;20486;-69
2022/09/02 01:05:37;;;;;;;1999.90;999.90;;;11.60;99.90;;;;;;5060044;28;20522;-67
2022/09/02 01:08:06;;;;;;;1999.90;999.90;;;11.60;99.90;;;;;;5056043;28;20512;-69
2022/09/02 01:10:34;;;;;;;1999.90;999.90;;;11.60;99.90;;;;;;5057545;28;20466;-68
2022/09/02 01:13:06;;;;;;;1999.90;999.90;;;11.60;99.90;;;;;;5051234;28;20486;-67
2022/09/02 01:15:35;;;;;;;1999.90;999.90;;;11.50;99.90;;;;;;5044288;28;20821;-68
2022/09/02 01:18:03;;;;;;;1999.90;999.90;;;11.40;99.90;;;;;;5049482;28;20821;-68
2022/09/02 01:20:30;;;;;;;1999.90;999.90;;;11.30;99.90;;;;;;5061558;28;20457;-67
2022/09/02 01:22:59;;;;;;;1999.90;999.90;;;11.30;99.90;;;;;;5053595;28;20473;-67
2022/09/02 01:25:29;;;;;;;1999.90;999.90;;;11.20;99.90;;;;;;5051973;28;20496;-68
2022/09/02 01:28:00;;;;;;;1999.90;999.90;;;11.20;99.90;;;;;;5045640;28;20478;-68
2022/09/02 01:30:27;;;;;;;1999.90;999.90;;;11.10;99.90;;;;;;5048480;28;20985;-67
2022/09/02 01:32:54;;;;;;;1999.90;999.90;;;11.10;99.90;;;;;;5056762;28;20523;-68
2022/09/02 01:35:21;;;;;;;1999.90;999.90;;;11.20;99.90;;;;;;5054907;28;20457;-68
2022/09/02 01:37:48;;;;;;;1999.90;999.90;;;11.20;99.90;;;;;;5058297;28;20522;-67
2022/09/02 01:40:17;;;;;;;1999.90;999.90;;;11.20;99.90;;;;;;5053908;28;20824;-68
2022/09/02 01:42:45;;;;;;;1999.90;999.90;;;11.20;99.90;;;;;;5053506;28;21075;-66
2022/09/02 01:45:12;;;;;;;1999.90;999.90;;;11.20;99.90;;;;;;5049531;28;20500;-68
2022/09/02 01:47:39;;;;;;;1999.90;999.90;;;11.20;99.90;;;;;;5050004;28;20474;-68
2022/09/02 01:50:06;;;;;;;1999.90;999.90;;;11.20;99.90;;;;;;5055178;28;20467;-68
2022/09/02 01:52:34;;;;;;;1999.90;999.90;;;11.30;99.90;;;;;;5056352;28;20543;-67
2022/09/02 01:55:01;;;;;;;1999.90;999.90;;;11.30;99.90;;;;;;5054835;28;20462;-68
2022/09/02 01:57:29;;;;;;;1999.90;999.90;;;11.30;99.90;;;;;;5044059;28;20493;-68
2022/09/02 01:59:56;;;;;;;1999.90;999.90;;;11.30;99.90;;;;;;5045373;28;20888;-68
2022/09/02 02:02:23;;;;;;;1999.90;999.90;;;11.30;99.90;;;;;;5047504;28;20520;-68
2022/09/02 02:04:50;;;;;;;1999.90;999.90;;;11.30;99.90;;;;;;5053049;28;20470;-68
2022/09/02 02:07:19;;;;;;;1999.90;999.90;;;11.20;99.90;;;;;;5060348;28;20506;-68
2022/09/02 02:09:47;;;;;;;1999.90;999.90;;;11.30;99.90;;;;;;5056166;28;20465;-68
2022/09/02 02:12:13;;;;;;;1999.90;999.90;;;11.30;99.90;;;;;;5046936;28;20486;-67
2022/09/02 02:14:41;;;;;;;1999.90;999.90;;;11.30;99.90;;;;;;5053271;28;20517;-67
2022/09/02 02:17:08;;;;;;;1999.90;999.90;;;11.20;99.90;;;;;;5058738;28;20514;-67
2022/09/02 02:19:35;;;;;;;1999.90;999.90;;;11.10;99.90;;;;;;5060800;28;20487;-67
2022/09/02 02:22:02;;;;;;;1999.90;999.90;;;11.10;99.90;;;;;;5050715;28;20524;-67
2022/09/02 02:24:29;;;;;;;1999.90;999.90;;;11.00;99.90;;;;;;5055129;28;22447;-67
2022/09/02 02:26:56;;;;;;;1999.90;999.90;;;10.90;99.90;;;;;;5044174;28;20563;-69
2022/09/02 02:29:22;;;;;;;1999.90;999.90;;;10.90;99.90;;;;;;5050068;28;20490;-70
2022/09/02 02:31:50;;;;;;;1999.90;999.90;;;10.90;99.90;;;;;;5058732;28;20850;-70
2022/09/02 02:34:17;;;;;;;1999.90;999.90;;;10.80;99.90;;;;;;5055547;28;20459;-68
2022/09/02 02:36:44;;;;;;;1999.90;999.90;;;10.80;99.90;;;;;;5055182;28;20461;-65
2022/09/02 02:39:12;;;;;;;1999.90;999.90;;;10.70;99.90;;;;;;5053370;28;20458;-67
2022/09/02 02:41:40;;;;;;;1999.90;999.90;;;10.70;99.90;;;;;;5044040;28;20531;-67
2022/09/02 02:44:07;;;;;;;1999.90;999.90;;;10.70;99.90;;;;;;5050504;28;20487;-68
2022/09/02 02:46:34;;;;;;;1999.90;999.90;;;10.80;99.90;;;;;;5060614;28;20544;-67
2022/09/02 02:49:03;;;;;;;1999.90;999.90;;;10.70;99.90;;;;;;5050770;28;20865;-66
2022/09/02 02:51:29;;;;;;;1999.90;999.90;;;10.70;99.90;;;;;;5061117;28;20469;-67
2022/09/02 02:53:56;;;;;;;1999.90;999.90;;;10.80;99.90;;;;;;5048802;28;20920;-66
2022/09/02 02:56:22;;;;;;;1999.90;999.90;;;10.90;99.90;;;;;;5047248;28;20510;-67
2022/09/02 02:58:49;;;;;;;1999.90;999.90;;;10.90;99.90;;;;;;5064894;28;20461;-67
2022/09/02 03:01:16;;;;;;;1999.90;999.90;;;10.90;99.90;;;;;;5055518;28;20520;-67
2022/09/02 03:03:43;;;;;;;1999.90;999.90;;;10.90;99.90;;;;;;5065082;28;20554;-67
2022/09/02 03:06:11;;;;;;;1999.90;999.90;;;10.90;99.90;;;;;;5061933;28;20463;-67
2022/09/02 03:08:38;;;;;;;1999.90;999.90;;;10.80;99.90;;;;;;5059870;28;20543;-67
2022/09/02 03:11:05;;;;;;;1999.90;999.90;;;10.90;99.90;;;;;;5044091;28;20523;-65
2022/09/02 03:13:33;;;;;;;1999.90;999.90;;;10.80;99.90;;;;;;5062136;28;20525;-67
2022/09/02 03:16:00;;;;;;;1999.90;999.90;;;10.80;99.90;;;;;;5058308;28;20841;-68
2022/09/02 03:18:26;;;;;;;1999.90;999.90;;;10.90;99.90;;;;;;5052284;28;20503;-67
2022/09/02 03:20:54;;;;;;;1999.90;999.90;;;10.80;99.90;;;;;;5056473;28;21031;-67
2022/09/02 03:23:22;;;;;;;1999.90;999.90;;;10.70;99.90;;;;;;5041063;28;20522;-70
2022/09/02 03:25:49;;;;;;;1999.90;999.90;;;10.60;99.90;;;;;;5039827;28;20454;-69
2022/09/02 03:28:16;;;;;;;1999.90;999.90;;;10.60;99.90;;;;;;5049916;28;20563;-70
2022/09/02 03:30:44;;;;;;;1999.90;999.90;;;10.60;99.90;;;;;;5053158;28;20461;-70
2022/09/02 03:33:11;;;;;;;1999.90;999.90;;;10.50;99.90;;;;;;5050867;28;20568;-69
2022/09/02 03:35:40;;;;;;;1999.90;999.90;;;10.40;99.90;;;;;;5050647;28;20466;-70
2022/09/02 03:38:07;;;;;;;1999.90;999.90;;;10.40;99.90;;;;;;5038406;28;21221;-70
2022/09/02 03:40:36;;;;;;;1999.90;999.90;;;10.40;99.90;;;;;;5043750;28;20462;-70
2022/09/02 03:43:03;;;;;;;1999.90;999.90;;;10.40;99.90;;;;;;5054967;28;20475;-69
2022/09/02 03:45:30;;;;;;;1999.90;999.90;;;10.40;99.90;;;;;;5049278;28;20548;-70
2022/09/02 03:47:58;;;;;;;1999.90;999.90;;;10.30;99.90;;;;;;5050566;28;20887;-69
2022/09/02 03:50:28;;;;;;;1999.90;999.90;;;10.30;99.90;;;;;;5044485;28;20467;-70
2022/09/02 03:52:55;;;;;;;1999.90;999.90;;;10.40;99.90;;;;;;5040930;28;20965;-68
2022/09/02 03:55:22;;;;;;;1999.90;999.90;;;10.40;99.90;;;;;;5050269;28;20466;-69
2022/09/02 03:57:50;;;;;;;1999.90;999.90;;;10.40;99.90;;;;;;5048610;28;20906;-70
2022/09/02 04:00:19;;;;;;;1999.90;999.90;;;10.30;99.90;;;;;;5048463;28;20527;-70
2022/09/02 04:02:46;;;;;;;1999.90;999.90;;;10.20;99.90;;;;;;5050641;28;20531;-70
2022/09/02 04:05:13;;;;;;;1999.90;999.90;;;10.20;99.90;;;;;;5041535;28;20462;-70
2022/09/02 04:07:40;;;;;;;1999.90;999.90;;;10.10;99.90;;;;;;5039973;28;20478;-69
2022/09/02 04:10:08;;;;;;;1999.90;999.90;;;10.20;99.90;;;;;;5049166;28;21312;-67
2022/09/02 04:12:35;;;;;;;1999.90;999.90;;;10.20;99.90;;;;;;5052355;28;20494;-69
2022/09/02 04:15:05;;;;;;;1999.90;999.90;;;10.10;99.90;;;;;;5048302;28;21102;-70
2022/09/02 04:17:32;;;;;;;1999.90;999.90;;;10.10;99.90;;;;;;5061108;28;20496;-70
2022/09/02 04:19:58;;;;;;;1999.90;999.90;;;10.10;99.90;;;;;;5042509;28;20549;-71
2022/09/02 04:22:25;;;;;;;1999.90;999.90;;;10.10;99.90;;;;;;5043290;28;20541;-71
2022/09/02 04:24:51;;;;;;;1999.90;999.90;;;10.10;99.90;;;;;;5046636;28;20950;-70
2022/09/02 04:27:18;;;;;;;1999.90;999.90;;;10.10;99.90;;;;;;5056072;28;20454;-69
2022/09/02 04:29:45;;;;;;;1999.90;999.90;;;10.10;99.90;;;;;;5049830;28;20489;-71
2022/09/02 04:32:12;;;;;;;1999.90;999.90;;;10.00;99.90;;;;;;5039302;28;20458;-71
2022/09/02 04:34:39;;;;;;;1999.90;999.90;;;9.90;99.90;;;;;;5046115;28;20493;-71
2022/09/02 04:37:06;;;;;;;1999.90;999.90;;;9.80;99.90;;;;;;5044778;28;20462;-69
2022/09/02 04:39:33;;;;;;;1999.90;999.90;;;9.70;99.90;;;;;;5040345;28;20463;-69
2022/09/02 04:41:59;;;;;;;1999.90;999.90;;;9.70;99.90;;;;;;5039346;28;20480;-70
2022/09/02 04:44:26;;;;;;;1999.90;999.90;;;9.60;99.90;;;;;;5040739;28;20467;-70
2022/09/02 04:46:53;;;;;;;1999.90;999.90;;;9.60;99.90;;;;;;5033938;28;20907;-71
2022/09/02 04:49:20;;;;;;;1999.90;999.90;;;9.60;99.90;;;;;;5042167;28;20541;-70
2022/09/02 04:51:47;;;;;;;1999.90;999.90;;;9.50;99.90;;;;;;5042445;28;20501;-70
2022/09/02 04:54:14;;;;;;;1999.90;999.90;;;9.50;99.90;;;;;;5043920;28;20478;-72
2022/09/02 04:56:40;;;;;;;1999.90;999.90;;;9.50;99.90;;;;;;5037283;28;20940;-71
2022/09/02 04:59:07;;;;;;;1999.90;999.90;;;9.60;99.90;;;;;;5036980;28;20913;-71
2022/09/02 05:01:35;;;;;;;1999.90;999.90;;;9.60;99.90;;;;;;5047016;28;20466;-71
2022/09/02 05:04:06;;;;;;;1999.90;999.90;;;9.80;99.90;;;;;;5042688;28;21051;-72
2022/09/02 05:06:34;;;;;;;1999.90;999.90;;;9.80;99.90;;;;;;5034462;28;20525;-70
2022/09/02 05:09:01;;;;;;;1999.90;999.90;;;9.80;99.90;;;;;;5043078;28;20544;-69
2022/09/02 05:11:30;;;;;;;1999.90;999.90;;;9.80;99.90;;;;;;5047155;28;21019;-71
2022/09/02 05:13:59;;;;;;;1999.90;999.90;;;9.90;99.90;;;;;;5046017;28;21001;-69
2022/09/02 05:16:29;;;;;;;1999.90;999.90;;;10.00;99.90;;;;;;5035422;28;20466;-71
2022/09/02 05:18:56;;;;;;;1999.90;999.90;;;10.10;99.90;;;;;;5041241;28;20504;-71
2022/09/02 05:21:23;;;;;;;1999.90;999.90;;;10.40;99.90;;;;;;5036013;28;20480;-69
2022/09/02 05:23:52;;;;;;;1999.90;999.90;;;10.60;99.90;;;;;;5042379;28;20552;-70
2022/09/02 05:26:19;;;;;;;1999.90;999.90;;;10.80;99.90;;;;;;5047576;28;20981;-68
2022/09/02 05:28:46;;;;;;;1999.90;999.90;;;11.00;99.90;;;;;;5046105;28;20478;-69
2022/09/02 05:31:18;;;;;;;1999.90;999.90;;;11.20;99.90;;;;;;5036270;28;20466;-68
2022/09/02 05:33:45;;;;;;;1999.90;999.90;;;11.50;99.90;;;;;;5041301;28;20539;-68
2022/09/02 05:36:15;;;;;;;1999.90;999.90;;;11.70;99.90;;;;;;5047015;28;20458;-67
2022/09/02 05:38:43;;;;;;;1999.90;999.90;;;11.70;99.90;;;;;;5042628;28;20471;-68
2022/09/02 05:41:13;;;;;;;1999.90;999.90;;;11.80;99.90;;;;;;5040866;28;20463;-68
2022/09/02 05:43:42;;;;;;;1999.90;999.90;;;11.90;99.90;;;;;;5047734;28;20487;-67
2022/09/02 05:46:11;;;;;;;1999.90;999.90;;;12.10;99.90;;;;;;5067033;28;21106;-68
2022/09/02 05:51:24;;;;;;;1999.90;999.90;;;12.50;99.90;;;;;;5045564;28;20441;-69
2022/09/02 05:53:53;;;;;;;1999.90;999.90;;;12.70;99.90;;;;;;5037729;28;20497;-68
2022/09/02 05:56:21;;;;;;;1999.90;999.90;;;12.90;99.90;;;;;;5043264;28;20457;-69
2022/09/02 05:58:48;;;;;;;1999.90;999.90;;;13.00;99.90;;;;;;5038118;28;20462;-69
2022/09/02 06:01:19;;;;;;;1999.90;999.90;;;13.30;99.90;;;;;;5045929;28;20547;-67
2022/09/02 06:03:45;;;;;;;1999.90;999.90;;;13.40;99.90;;;;;;5042245;28;20483;-69
2022/09/02 06:06:12;;;;;;;1999.90;999.90;;;13.40;99.90;;;;;;5042853;28;20466;-68
2022/09/02 06:08:39;;;;;;;1999.90;999.90;;;13.50;99.90;;;;;;5039778;28;20633;-66
2022/09/02 06:11:09;;;;;;;1999.90;999.90;;;13.60;99.90;;;;;;5045344;28;20463;-69
2022/09/02 06:13:39;;;;;;;1999.90;999.90;;;13.70;99.90;;;;;;5038774;28;20498;-68
2022/09/02 06:16:07;;;;;;;1999.90;999.90;;;13.80;99.90;;;;;;5041659;28;20466;-68
2022/09/02 06:18:34;;;;;;;1999.90;999.90;;;13.90;99.90;;;;;;5046021;28;20462;-66
2022/09/02 06:21:03;;;;;;;1999.90;999.90;;;13.90;99.90;;;;;;5043935;28;21048;-67
2022/09/02 06:23:30;;;;;;;1999.90;999.90;;;14.00;99.90;;;;;;5040538;28;21075;-68
2022/09/02 06:25:57;;;;;;;1999.90;999.90;;;14.00;99.90;;;;;;5042896;28;20478;-69
2022/09/02 06:28:24;;;;;;;1999.90;999.90;;;14.00;99.90;;;;;;5042556;28;20544;-69
2022/09/02 06:30:52;;;;;;;1999.90;999.90;;;14.20;99.90;;;;;;5044599;28;20491;-68
2022/09/02 06:33:18;;;;;;;1999.90;999.90;;;14.30;99.90;;;;;;5050133;28;20486;-69
2022/09/02 06:35:46;;;;;;;1999.90;999.90;;;14.40;99.90;;;;;;5060546;28;20878;-68
2022/09/02 06:38:13;;;;;;;1999.90;999.90;;;14.60;99.90;;;;;;5063863;28;20470;-66
2022/09/02 06:40:47;;;;;;;1999.90;999.90;;;14.80;99.90;;;;;;5049090;28;20518;-68
2022/09/02 06:43:13;;;;;;;1999.90;999.90;;;15.00;99.90;;;;;;5042982;28;20901;-69
2022/09/02 06:45:40;;;;;;;1999.90;999.90;;;15.20;99.90;;;;;;5047046;28;21213;-68
2022/09/02 06:48:08;;;;;;;1999.90;999.90;;;15.30;99.90;;;;;;5051461;28;20459;-69
2022/09/02 06:50:38;;;;;;;1999.90;999.90;;;15.40;99.90;;;;;;5048040;28;20839;-69
2022/09/02 06:53:07;;;;;;;1999.90;999.90;;;15.60;99.90;;;;;;5036715;28;20549;-69
2022/09/02 06:55:35;;;;;;;1999.90;999.90;;;15.70;99.90;;;;;;5045751;28;20459;-68
2022/09/02 06:58:02;;;;;;;1999.90;999.90;;;15.90;99.90;;;;;;5036630;28;20462;-69
2022/09/02 07:00:30;;;;;;;1999.90;999.90;;;16.20;99.90;;;;;;5043006;28;20892;-68
2022/09/02 07:05:38;;;;;;;1999.90;999.90;;;16.50;99.90;;;;;;5043646;28;20506;-69
2022/09/02 07:08:05;;;;;;;1999.90;999.90;;;16.70;99.90;;;;;;5040370;28;20467;-67
2022/09/02 07:10:32;;;;;;;1999.90;999.90;;;16.90;99.90;;;;;;5039937;28;20481;-68
2022/09/02 07:12:59;;;;;;;1999.90;999.90;;;16.90;99.90;;;;;;5042883;28;20497;-70
2022/09/02 07:15:26;;;;;;;1999.90;999.90;;;17.10;99.90;;;;;;5050345;28;20469;-68
2022/09/02 07:17:52;;;;;;;1999.90;999.90;;;17.30;99.90;;;;;;5044794;28;20466;-68
2022/09/02 07:20:19;;;;;;;1999.90;999.90;;;17.30;99.90;;;;;;5040398;28;20470;-70
2022/09/02 07:22:48;;;;;;;1999.90;999.90;;;17.40;99.90;;;;;;5036804;28;20494;-68
2022/09/02 07:25:15;;;;;;;1999.90;999.90;;;17.70;99.90;;;;;;5042149;28;21051;-69
2022/09/02 07:27:42;;;;;;;1999.90;999.90;;;17.60;99.90;;;;;;5038885;28;20476;-70
2022/09/02 07:30:10;;;;;;;1999.90;999.90;;;17.80;99.90;;;;;;5047656;28;21034;-68
2022/09/02 07:32:37;;;;;;;1999.90;999.90;;;18.10;99.90;;;;;;5049254;28;20483;-67
2022/09/02 07:35:06;;;;;;;1999.90;999.90;;;18.20;99.90;;;;;;5052786;28;20485;-70
2022/09/02 07:37:34;;;;;;;1999.90;999.90;;;18.00;99.90;;;;;;5053365;28;20999;-68
2022/09/02 07:40:02;;;;;;;1999.90;999.90;;;18.20;99.90;;;;;;5050683;28;20476;-66
2022/09/02 07:42:29;;;;;;;1999.90;999.90;;;18.20;99.90;;;;;;5051633;28;20481;-65
2022/09/02 07:44:55;;;;;;;1999.90;999.90;;;18.40;99.90;;;;;;5051105;28;20470;-66
2022/09/02 07:47:22;;;;;;;1999.90;999.90;;;18.70;99.90;;;;;;5048505;28;20458;-69
2022/09/02 07:49:49;;;;;;;1999.90;999.90;;;18.70;99.90;;;;;;5049914;28;20483;-68
2022/09/02 07:52:16;;;;;;;1999.90;999.90;;;18.60;99.90;;;;;;5056701;28;20482;-68
2022/09/02 07:54:43;;;;;;;1999.90;999.90;;;18.70;99.90;;;;;;5051056;28;20454;-69
2022/09/02 07:57:11;;;;;;;1999.90;999.90;;;18.80;99.90;;;;;;5055161;28;20491;-69
2022/09/02 07:59:38;;;;;;;1999.90;999.90;;;19.00;99.90;;;;;;5045723;28;20504;-68
2022/09/02 08:02:05;;;;;;;1999.90;999.90;;;19.00;99.90;;;;;;5053915;28;20495;-69
2022/09/02 08:04:31;;;;;;;1999.90;999.90;;;19.10;99.90;;;;;;5053798;28;20442;-68
2022/09/02 08:06:59;;;;;;;1999.90;999.90;;;19.20;99.90;;;;;;5054271;28;20462;-69
2022/09/02 08:09:25;;;;;;;1999.90;999.90;;;19.20;99.90;;;;;;5049062;28;20993;-69
2022/09/02 08:11:53;;;;;;;1999.90;999.90;;;19.20;99.90;;;;;;5048712;28;20461;-69
2022/09/02 08:14:24;;;;;;;1999.90;999.90;;;19.60;99.90;;;;;;5049885;28;20528;-69
2022/09/02 08:16:51;;;;;;;1999.90;999.90;;;19.90;99.90;;;;;;5044628;28;20461;-70
2022/09/02 08:19:18;;;;;;;1999.90;999.90;;;19.90;99.90;;;;;;5048716;28;20865;-70
2022/09/02 08:21:45;;;;;;;1999.90;999.90;;;19.80;99.90;;;;;;5051270;28;20459;-68
2022/09/02 08:24:12;;;;;;;1999.90;999.90;;;19.80;99.90;;;;;;5056286;28;20531;-69
2022/09/02 08:26:38;;;;;;;1999.90;999.90;;;19.90;99.90;;;;;;5042160;28;22619;-69
2022/09/02 08:29:06;;;;;;;1999.90;999.90;;;20.30;99.90;;;;;;5047453;28;20487;-69
2022/09/02 08:31:36;;;;;;;1999.90;999.90;;;20.40;99.90;;;;;;5048462;28;20461;-69
2022/09/02 08:34:03;;;;;;;1999.90;999.90;;;20.50;99.90;;;;;;5056310;28;20477;-69
2022/09/02 08:36:30;;;;;;;1999.90;999.90;;;20.60;99.90;;;;;;5042655;28;20826;-68
2022/09/02 08:38:56;;;;;;;1999.90;999.90;;;20.70;99.90;;;;;;5043867;28;20821;-69
2022/09/02 08:41:25;;;;;;;1999.90;999.90;;;20.80;99.70;;;;;;5054806;28;20531;-70
2022/09/02 08:43:55;;;;;;;1999.90;999.90;;;20.80;99.20;;;;;;5047291;28;20926;-68
2022/09/02 08:46:25;;;;;;;1999.90;999.90;;;21.00;99.80;;;;;;5049993;28;20465;-69
2022/09/02 08:48:56;;;;;;;1999.90;999.90;;;21.00;99.10;;;;;;5053121;28;20446;-69
2022/09/02 08:51:29;;;;;;;1999.90;999.90;;;21.10;99.20;;;;;;5052919;28;20496;-69
2022/09/02 08:54:00;;;;;;;1999.90;999.90;;;21.20;99.30;;;;;;5052439;28;20470;-72
2022/09/02 08:56:27;;;;;;;1999.90;999.90;;;21.30;98.30;;;;;;5052798;28;20450;-69
2022/09/02 08:58:55;;;;;;;1999.90;999.90;;;21.30;98.20;;;;;;5053133;28;20453;-71
2022/09/02 09:01:29;;;;;;;1999.90;999.90;;;21.40;98.20;;;;;;5052587;28;20930;-71
2022/09/02 09:04:16;;;;;;;1999.90;999.90;;;21.40;98.20;;;;;;5050786;28;20490;-71
2022/09/02 09:06:55;;;;;;;1999.90;999.90;;;21.40;97.60;;;;;;5048564;28;20512;-71
2022/09/02 09:09:28;;;;;;;1999.90;999.90;;;21.20;97.30;;;;;;5047984;28;20909;-72
2022/09/02 09:12:02;;;;;;;1999.90;999.90;;;21.30;97.70;;;;;;5049834;28;20507;-69
2022/09/02 09:14:38;;;;;;;1999.90;999.90;;;21.40;96.90;;;;;;5049224;28;20968;-69
2022/09/02 09:17:13;;;;;;;1999.90;999.90;;;21.20;96.30;;;;;;5046679;28;20434;-68
2022/09/02 09:19:48;;;;;;;1999.90;999.90;;;21.40;96.50;;;;;;5047608;28;20495;-69
2022/09/02 09:22:18;;;;;;;1999.90;999.90;;;21.30;95.50;;;;;;5037783;28;20473;-67
2022/09/02 09:24:46;;;;;;;1999.90;999.90;;;21.30;96.10;;;;;;5051446;28;20447;-71
2022/09/02 09:27:15;;;;;;;1999.90;999.90;;;21.40;96.10;;;;;;5068803;28;20498;-69
2022/09/02 09:29:42;;;;;;;1999.90;999.90;;;21.40;95.50;;;;;;5059400;28;20847;-69
2022/09/02 09:32:19;;;;;;;1999.90;999.90;;;21.40;95.50;;;;;;5040601;28;20446;-70
2022/09/02 09:34:56;;;;;;;1999.90;999.90;;;21.60;94.60;;;;;;5042778;28;20462;-71
2022/09/02 09:37:29;;;;;;;1999.90;999.90;;;21.70;94.10;;;;;;5050517;28;20464;-72
2022/09/02 09:39:56;;;;;;;1999.90;999.90;;;21.90;94.20;;;;;;5046408;28;20458;-72
2022/09/02 09:42:31;;;;;;;1999.90;999.90;;;21.80;94.10;;;;;;5046840;28;20539;-71
2022/09/02 09:44:58;;;;;;;1999.90;999.90;;;21.90;94.60;;;;;;5045213;28;20458;-72
2022/09/02 09:47:26;;;;;;;1999.90;999.90;;;22.20;93.90;;;;;;5043465;28;20450;-68
2022/09/02 09:50:09;;;;;;;1999.90;999.90;;;22.00;92.70;;;;;;5051854;28;20477;-68
2022/09/02 09:52:36;;;;;;;1999.90;999.90;;;21.80;93.80;;;;;;5051949;28;20470;-72
2022/09/02 09:55:12;;;;;;;1999.90;999.90;;;22.10;94.10;;;;;;5051649;28;20536;-72
2022/09/02 09:57:39;;;;;;;1999.90;999.90;;;22.10;93.40;;;;;;5052427;28;20434;-72
2022/09/02 10:00:30;;;;;;;1999.90;999.90;;;22.10;93.20;;;;;;5051797;28;20446;-71
2022/09/02 10:03:00;;;;;;;1999.90;999.90;;;22.10;93.10;;;;;;5048303;28;20478;-72
2022/09/02 10:05:34;;;;;;;1999.90;999.90;;;22.10;92.70;;;;;;5051071;28;20889;-70
2022/09/02 10:08:04;;;;;;;1999.90;999.90;;;22.00;92.90;;;;;;5045733;28;20462;-70
2022/09/02 10:10:32;;;;;;;1999.90;999.90;;;22.20;92.90;;;;;;5045197;28;21248;-70
2022/09/02 10:13:01;;;;;;;1999.90;999.90;;;22.20;92.30;;;;;;5069023;28;20475;-70
2022/09/02 10:15:34;;;;;;;1999.90;999.90;;;22.20;92.40;;;;;;5071016;28;20449;-71
2022/09/02 10:18:13;;;;;;;1999.90;999.90;;;22.30;92.30;;;;;;5071894;28;20444;-71
2022/09/02 10:20:50;;;;;;;1999.90;999.90;;;22.40;92.10;;;;;;5058388;28;20446;-71
2022/09/02 10:23:32;;;;;;;1999.90;999.90;;;22.40;92.30;;;;;;5051493;28;20855;-72
2022/09/02 10:26:12;;;;;;;1999.90;999.90;;;22.40;92.30;;;;;;5048332;28;20515;-71
2022/09/02 10:29:00;;;;;;;1999.90;999.90;;;22.40;91.80;;;;;;5040979;28;21040;-71
2022/09/02 10:31:31;;;;;;;1999.90;999.90;;;22.60;92.10;;;;;;5043703;28;20862;-71
2022/09/02 10:34:10;;;;;;;1999.90;999.90;;;22.60;92.10;;;;;;5055895;28;20543;-71
2022/09/02 10:36:53;;;;;;;1999.90;999.90;;;22.70;92.00;;;;;;5058275;28;20434;-70
2022/09/02 10:39:27;;;;;;;1999.90;999.90;;;22.70;91.80;;;;;;5071455;28;20843;-71
2022/09/02 10:42:02;;;;;;;1999.90;999.90;;;22.90;91.60;;;;;;5071014;28;20453;-72
2022/09/02 10:44:33;;;;;;;1999.90;999.90;;;23.10;91.10;;;;;;5068607;28;20425;-70
2022/09/02 10:47:02;;;;;;;1999.90;999.90;;;22.90;90.60;;;;;;5051482;28;20446;-72
2022/09/02 10:49:42;;;;;;;1999.90;999.90;;;22.80;90.80;;;;;;5051315;28;20450;-72
2022/09/02 10:52:21;;;;;;;1999.90;999.90;;;22.70;90.70;;;;;;5037191;28;20951;-73
2022/09/02 10:54:59;;;;;;;1999.90;999.90;;;22.80;90.80;;;;;;5039723;28;20462;-71
2022/09/02 10:57:32;;;;;;;1999.90;999.90;;;23.10;90.80;;;;;;5043901;28;21011;-70
2022/09/02 11:00:04;;;;;;;1999.90;999.90;;;23.00;90.00;;;;;;5045425;28;20508;-71
2022/09/02 11:02:37;;;;;;;1999.90;999.90;;;22.80;89.00;;;;;;5043166;28;20490;-70
2022/09/02 11:05:08;;;;;;;1999.90;999.90;;;23.00;90.50;;;;;;5047326;28;20483;-72
2022/09/02 11:07:42;;;;;;;1999.90;999.90;;;23.10;90.10;;;;;;5054654;28;20465;-70
2022/09/02 11:10:11;;;;;;;1999.90;999.90;;;23.10;89.30;;;;;;5053195;28;20474;-70
2022/09/02 11:12:41;;;;;;;1999.90;999.90;;;23.10;89.70;;;;;;5050715;28;20478;-70
2022/09/02 11:15:15;;;;;;;1999.90;999.90;;;23.30;89.00;;;;;;5050614;28;20442;-71
2022/09/02 11:17:51;;;;;;;1999.90;999.90;;;23.40;88.00;;;;;;5052367;28;20433;-71
2022/09/02 11:20:29;;;;;;;1999.90;999.90;;;23.40;87.90;;;;;;5054290;28;20582;-71
2022/09/02 11:23:03;;;;;;;1999.90;999.90;;;23.20;85.90;;;;;;5054906;28;20501;-69
2022/09/02 11:25:36;;;;;;;1999.90;999.90;;;22.80;87.30;;;;;;5054693;28;20503;-72
2022/09/02 11:28:15;;;;;;;1999.90;999.90;;;22.70;88.20;;;;;;5054677;28;21004;-71
2022/09/02 11:30:47;;;;;;;1999.90;999.90;;;22.80;87.80;;;;;;5054334;28;20531;-72
2022/09/02 11:33:19;;;;;;;1999.90;999.90;;;23.00;87.40;;;;;;5054735;28;20675;-72
2022/09/02 11:35:46;;;;;;;1999.90;999.90;;;23.20;86.80;;;;;;5053818;28;20504;-72
2022/09/02 11:38:29;;;;;;;1999.90;999.90;;;23.50;86.90;;;;;;5054654;28;20446;-72
2022/09/02 11:41:25;;;;;;;1999.90;999.90;;;23.70;86.20;;;;;;5054656;28;20461;-72
2022/09/02 11:43:55;;;;;;;1999.90;999.90;;;23.60;84.90;;;;;;5053897;28;20893;-72
2022/09/02 11:46:49;;;;;;;1999.90;999.90;;;23.50;83.80;;;;;;5054195;28;20450;-70
2022/09/02 11:49:32;;;;;;;1999.90;999.90;;;23.30;84.70;;;;;;5054255;28;20445;-71
2022/09/02 11:52:19;;;;;;;1999.90;999.90;;;23.20;84.80;;;;;;5051935;28;20485;-71
2022/09/02 11:54:49;;;;;;;1999.90;999.90;;;22.90;84.20;;;;;;5033955;28;20971;-70
2022/09/02 11:57:21;;;;;;;1999.90;999.90;;;23.00;84.60;;;;;;5034106;28;20837;-71
2022/09/02 12:00:09;;;;;;;1999.90;999.90;;;22.90;83.80;;;;;;5034410;28;20428;-70
2022/09/02 12:02:39;;;;;;;1999.90;999.90;;;22.70;84.90;;;;;;5034299;28;20473;-71
2022/09/02 12:05:44;;;;;;;1999.90;999.90;;;22.40;85.40;;;;;;5034018;28;20497;-70
2022/09/02 12:08:12;;;;;;;1999.90;999.90;;;22.40;85.30;;;;;;5033997;28;20936;-71
2022/09/02 12:11:00;;;;;;;1999.90;999.90;;;22.30;85.60;;;;;;5045533;28;20866;-71
2022/09/02 12:13:36;;;;;;;1999.90;999.90;;;22.30;85.80;;;;;;5053601;28;20555;-70
2022/09/02 12:16:42;;;;;;;1999.90;999.90;;;22.50;85.60;;;;;;5053432;28;21025;-70